createdAt,value
2018-09-27T00:00:52.579Z,56.56
2018-09-27T00:02:02.515Z,56.56
2018-09-27T00:03:12.457Z,56.65
2018-09-27T00:04:22.396Z,56.65
2018-09-27T00:05:32.341Z,56.65
2018-09-27T00:06:42.273Z,57.04
2018-09-27T00:07:52.195Z,57.04
2018-09-27T00:09:01.885Z,57.32
2018-09-27T00:10:11.826Z,57.04
2018-09-27T00:11:21.754Z,57.32
2018-09-27T00:12:31.694Z,57.7
2018-09-27T00:13:41.621Z,57.9
2018-09-27T00:14:51.569Z,57.51
2018-09-27T00:16:01.518Z,57.51
2018-09-27T00:17:11.210Z,57.42
2018-09-27T00:18:20.890Z,57.7
2018-09-27T00:19:30.946Z,57.7
2018-09-27T00:20:40.513Z,57.61
2018-09-27T00:21:49.934Z,57.87
2018-09-27T00:22:59.930Z,58.54
2018-09-27T00:24:09.608Z,58.25
2018-09-27T00:25:19.536Z,58.54
2018-09-27T00:26:29.478Z,58.44
2018-09-27T00:27:39.422Z,58.54
2018-09-27T00:28:49.102Z,58.63
2018-09-27T00:29:59.045Z,58.54
2018-09-27T00:31:08.998Z,58.54
2018-09-27T00:32:18.988Z,58.63
2018-09-27T00:33:28.665Z,58.83
2018-09-27T00:34:38.355Z,59.01
2018-09-27T00:35:48.296Z,58.83
2018-09-27T00:36:57.964Z,59.01
2018-09-27T00:38:07.909Z,59.01
2018-09-27T00:39:17.585Z,59.11
2018-09-27T00:40:27.531Z,59.2
2018-09-27T00:41:36.954Z,59.11
2018-09-27T00:42:46.906Z,59.4
2018-09-27T00:43:56.588Z,59.49
2018-09-27T00:45:06.535Z,59.59
2018-09-27T00:46:16.470Z,59.69
2018-09-27T00:47:26.216Z,59.3
2018-09-27T00:48:36.161Z,59.49
2018-09-27T00:49:46.104Z,59.49
2018-09-27T00:50:56.037Z,60.16
2018-09-27T00:52:05.716Z,59.88
2018-09-27T00:53:15.661Z,59.69
2018-09-27T00:54:25.608Z,59.97
2018-09-27T00:55:35.543Z,60.35
2018-09-27T00:56:45.485Z,60.06
2018-09-27T00:57:55.169Z,60.26
2018-09-27T00:59:04.848Z,59.97
2018-09-27T01:00:14.524Z,60.16
2018-09-27T01:01:24.474Z,60.83
2018-09-27T01:02:34.405Z,60.16
2018-09-27T01:03:44.095Z,60.64
2018-09-27T01:04:54.027Z,60.64
2018-09-27T01:06:03.713Z,60.33
2018-09-27T01:07:13.399Z,60.61
2018-09-27T01:08:23.356Z,60.42
2018-09-27T01:09:33.035Z,60.99
2018-09-27T01:10:42.986Z,60.61
2018-09-27T01:11:52.946Z,60.9
2018-09-27T01:13:02.877Z,61.28
2018-09-27T01:14:12.837Z,61.09
2018-09-27T01:15:22.828Z,61.31
2018-09-27T01:16:32.512Z,61.47
2018-09-27T01:17:42.193Z,61.38
2018-09-27T01:18:52.133Z,61.28
2018-09-27T01:20:02.073Z,61.66
2018-09-27T01:21:11.762Z,61.66
2018-09-27T01:22:21.191Z,61.57
2018-09-27T01:23:30.877Z,61.76
2018-09-27T01:24:40.811Z,62.04
2018-09-27T01:25:50.747Z,61.85
2018-09-27T01:27:00.689Z,62.14
2018-09-27T01:28:10.669Z,61.95
2018-09-27T01:29:20.615Z,61.85
2018-09-27T01:30:30.327Z,62.04
2018-09-27T01:31:40.283Z,61.85
2018-09-27T01:32:50.240Z,62.04
2018-09-27T01:34:00.194Z,62.04
2018-09-27T01:35:10.141Z,62.24
2018-09-27T01:36:19.823Z,62.43
2018-09-27T01:37:29.525Z,62.62
2018-09-27T01:38:38.961Z,62.52
2018-09-27T01:39:48.927Z,62.43
2018-09-27T01:40:58.342Z,62.9
2018-09-27T01:42:08.290Z,62.52
2018-09-27T01:43:18.233Z,62.62
2018-09-27T01:44:28.167Z,62.71
2018-09-27T01:45:38.096Z,62.52
2018-09-27T01:46:48.034Z,62.81
2018-09-27T01:47:57.716Z,63
2018-09-27T01:49:07.646Z,63.19
2018-09-27T01:50:17.344Z,63.39
2018-09-27T01:51:27.303Z,63.1
2018-09-27T01:52:37.298Z,63.86
2018-09-27T01:53:47.255Z,63.67
2018-09-27T01:54:56.660Z,63.57
2018-09-27T01:56:06.592Z,63.96
2018-09-27T01:57:16.535Z,63.86
2018-09-27T01:58:26.469Z,63.76
2018-09-27T01:59:36.412Z,63.86
2018-09-27T02:00:46.352Z,64.15
2018-09-27T02:01:56.039Z,63.96
2018-09-27T02:03:05.986Z,64.15
2018-09-27T02:04:15.925Z,64.53
2018-09-27T02:05:25.875Z,64.43
2018-09-27T02:06:35.573Z,64.25
2018-09-27T02:07:45.519Z,64.05
2018-09-27T02:08:55.465Z,64.62
2018-09-27T02:10:05.418Z,64.62
2018-09-27T02:11:15.367Z,64.62
2018-09-27T02:12:25.317Z,64.53
2018-09-27T02:13:34.755Z,64.91
2018-09-27T02:14:44.727Z,64.82
2018-09-27T02:15:54.160Z,65.11
2018-09-27T02:17:04.109Z,64.91
2018-09-27T02:18:14.042Z,65.01
2018-09-27T02:19:23.971Z,65.42
2018-09-27T02:20:33.640Z,64.82
2018-09-27T02:21:43.340Z,65.39
2018-09-27T02:22:53.025Z,65.3
2018-09-27T02:24:02.971Z,65.48
2018-09-27T02:25:12.920Z,65.42
2018-09-27T02:26:22.851Z,65.61
2018-09-27T02:27:32.531Z,65.81
2018-09-27T02:28:42.481Z,66
2018-09-27T02:29:52.433Z,65.61
2018-09-27T02:31:02.369Z,65.9
2018-09-27T02:32:12.328Z,65.77
2018-09-27T02:33:22.268Z,66.28
2018-09-27T02:34:32.200Z,66.09
2018-09-27T02:35:42.209Z,66.19
2018-09-27T02:36:51.893Z,65.71
2018-09-27T02:38:01.852Z,66.09
2018-09-27T02:39:11.793Z,66.47
2018-09-27T02:40:21.775Z,66.28
2018-09-27T02:41:31.732Z,66.47
2018-09-27T02:42:41.674Z,66.38
2018-09-27T02:43:51.628Z,66.47
2018-09-27T02:45:01.588Z,66.76
2018-09-27T02:46:11.274Z,66.96
2018-09-27T02:47:21.218Z,66.96
2018-09-27T02:48:31.180Z,67.05
2018-09-27T02:49:40.889Z,67.14
2018-09-27T02:50:50.834Z,67.24
2018-09-27T02:52:00.777Z,67.14
2018-09-27T02:53:10.725Z,67.34
2018-09-27T02:54:20.421Z,66.96
2018-09-27T02:55:30.367Z,67.21
2018-09-27T02:56:40.342Z,67.4
2018-09-27T02:57:50.306Z,67.4
2018-09-27T02:58:59.496Z,67.59
2018-09-27T03:00:08.923Z,67.97
2018-09-27T03:01:18.660Z,67.97
2018-09-27T03:02:28.354Z,68.07
2018-09-27T03:03:38.228Z,67.82
2018-09-27T03:04:48.182Z,68.29
2018-09-27T03:05:57.879Z,68.26
2018-09-27T03:07:07.823Z,68.1
2018-09-27T03:08:17.526Z,68.29
2018-09-27T03:09:27.481Z,68.84
2018-09-27T03:10:36.915Z,68.87
2018-09-27T03:11:46.606Z,68.49
2018-09-27T03:12:56.556Z,68.68
2018-09-27T03:14:06.515Z,68.58
2018-09-27T03:15:16.465Z,68.77
2018-09-27T03:16:26.410Z,69.06
2018-09-27T03:17:36.121Z,69.02
2018-09-27T03:18:46.291Z,69.44
2018-09-27T03:19:56.229Z,69.44
2018-09-27T03:21:06.438Z,69.41
2018-09-27T03:22:16.473Z,69.12
2018-09-27T03:23:26.192Z,69.35
2018-09-27T03:24:36.144Z,69.6
2018-09-27T03:25:46.081Z,69.79
2018-09-27T03:26:55.816Z,69.5
2018-09-27T03:28:05.771Z,69.79
2018-09-27T03:29:15.736Z,69.98
2018-09-27T03:30:25.688Z,70.07
2018-09-27T03:31:35.638Z,70.17
2018-09-27T03:32:45.333Z,69.79
2018-09-27T03:33:55.278Z,70.07
2018-09-27T03:35:04.967Z,70.17
2018-09-27T03:36:14.656Z,70.17
2018-09-27T03:37:24.617Z,70.27
2018-09-27T03:38:34.298Z,70.56
2018-09-27T03:39:44.335Z,70.65
2018-09-27T03:40:54.737Z,70.75
2018-09-27T03:42:04.689Z,70.94
2018-09-27T03:43:14.635Z,70.56
2018-09-27T03:44:24.327Z,70.75
2018-09-27T03:45:34.022Z,70.65
2018-09-27T03:46:43.971Z,70.84
2018-09-27T03:47:53.922Z,70.75
2018-09-27T03:49:03.877Z,71.32
2018-09-27T03:50:13.821Z,71.13
2018-09-27T03:51:23.769Z,70.65
2018-09-27T03:52:33.728Z,71.22
2018-09-27T03:53:43.427Z,70.84
2018-09-27T03:54:53.379Z,70.75
2018-09-27T03:56:03.342Z,71.51
2018-09-27T03:57:13.287Z,71.22
2018-09-27T03:58:22.966Z,71.32
2018-09-27T03:59:32.661Z,71.13
2018-09-27T04:00:42.618Z,71.8
2018-09-27T04:01:52.581Z,71.51
2018-09-27T04:03:02.277Z,71.7
2018-09-27T04:04:12.017Z,71.8
2018-09-27T04:05:21.959Z,72.08
2018-09-27T04:06:31.915Z,72.18
2018-09-27T04:07:41.860Z,72.08
2018-09-27T04:08:51.560Z,72.08
2018-09-27T04:10:01.311Z,72.37
2018-09-27T04:11:11.247Z,72.28
2018-09-27T04:12:20.939Z,72.37
2018-09-27T04:13:30.920Z,72.47
2018-09-27T04:14:40.618Z,71.99
2018-09-27T04:15:50.705Z,72.18
2018-09-27T04:17:00.980Z,72.75
2018-09-27T04:18:10.943Z,72.56
2018-09-27T04:19:20.905Z,72.75
2018-09-27T04:20:30.855Z,72.94
2018-09-27T04:21:40.913Z,72.5
2018-09-27T04:22:50.853Z,72.94
2018-09-27T04:24:00.687Z,72.75
2018-09-27T04:25:10.687Z,72.79
2018-09-27T04:26:20.371Z,72.75
2018-09-27T04:27:30.068Z,72.56
2018-09-27T04:28:39.752Z,72.08
2018-09-27T04:29:49.453Z,72.56
2018-09-27T04:30:58.875Z,72.75
2018-09-27T04:32:08.824Z,72.75
2018-09-27T04:33:18.777Z,72.85
2018-09-27T04:34:28.489Z,72.75
2018-09-27T04:35:37.920Z,72.66
2018-09-27T04:36:47.593Z,72.85
2018-09-27T04:37:57.542Z,72.94
2018-09-27T04:39:07.482Z,72.75
2018-09-27T04:40:17.427Z,72.75
2018-09-27T04:41:26.868Z,72.94
2018-09-27T04:42:36.856Z,73.23
2018-09-27T04:43:46.803Z,73.04
2018-09-27T04:44:56.754Z,73.04
2018-09-27T04:46:06.697Z,73.04
2018-09-27T04:47:16.132Z,73.23
2018-09-27T04:48:26.080Z,73.23
2018-09-27T04:49:35.520Z,74.09
2018-09-27T04:50:45.478Z,73.61
2018-09-27T04:51:55.057Z,73.52
2018-09-27T04:53:04.797Z,73.61
2018-09-27T04:54:14.751Z,73.61
2018-09-27T04:55:24.724Z,73.52
2018-09-27T04:56:34.654Z,73.99
2018-09-27T04:57:44.344Z,73.99
2018-09-27T04:58:54.090Z,73.8
2018-09-27T05:00:03.952Z,74.09
2018-09-27T05:01:14.476Z,73.8
2018-09-27T05:02:24.427Z,73.9
2018-09-27T05:03:34.117Z,74.19
2018-09-27T05:04:44.287Z,74.48
2018-09-27T05:05:54.233Z,74.66
2018-09-27T05:07:03.930Z,74.38
2018-09-27T05:08:13.866Z,74.38
2018-09-27T05:09:23.816Z,74.48
2018-09-27T05:10:33.890Z,74.38
2018-09-27T05:11:43.651Z,74.48
2018-09-27T05:12:53.624Z,74.28
2018-09-27T05:14:03.603Z,73.99
2018-09-27T05:15:13.291Z,74.09
2018-09-27T05:16:23.339Z,74.76
2018-09-27T05:17:33.023Z,74.76
2018-09-27T05:18:42.718Z,74.38
2018-09-27T05:19:52.661Z,74.85
2018-09-27T05:21:02.621Z,74.85
2018-09-27T05:22:12.572Z,74.85
2018-09-27T05:23:22.524Z,74.85
2018-09-27T05:24:32.478Z,74.95
2018-09-27T05:25:42.188Z,74.66
2018-09-27T05:26:51.914Z,74.76
2018-09-27T05:28:01.615Z,75.14
2018-09-27T05:29:11.585Z,75.24
2018-09-27T05:30:21.563Z,74.95
2018-09-27T05:31:31.528Z,75.62
2018-09-27T05:32:41.493Z,75.52
2018-09-27T05:33:51.198Z,75.52
2018-09-27T05:35:00.919Z,75.43
2018-09-27T05:36:10.590Z,75.52
2018-09-27T05:37:20.285Z,75.34
2018-09-27T05:38:30.246Z,75.24
2018-09-27T05:39:40.440Z,75.71
2018-09-27T05:40:50.180Z,75.43
2018-09-27T05:42:00.142Z,75.43
2018-09-27T05:43:10.081Z,75.56
2018-09-27T05:44:20.053Z,75.56
2018-09-27T05:45:30.095Z,75.18
2018-09-27T05:46:40.393Z,75.85
2018-09-27T05:47:50.333Z,75.47
2018-09-27T05:49:00.325Z,75.76
2018-09-27T05:50:10.308Z,75.66
2018-09-27T05:51:19.745Z,75.85
2018-09-27T05:52:29.839Z,75.85
2018-09-27T05:53:40.006Z,76.04
2018-09-27T05:54:49.969Z,75.95
2018-09-27T05:56:00.154Z,76.04
2018-09-27T05:57:10.037Z,76.33
2018-09-27T05:58:19.757Z,76.04
2018-09-27T05:59:29.705Z,76.04
2018-09-27T06:00:39.661Z,76.33
2018-09-27T06:01:49.397Z,76.33
2018-09-27T06:02:59.238Z,76.04
2018-09-27T06:04:09.214Z,76.33
2018-09-27T06:05:19.163Z,76.33
2018-09-27T06:06:29.123Z,76.23
2018-09-27T06:07:38.832Z,76.14
2018-09-27T06:08:48.776Z,76.33
2018-09-27T06:09:58.735Z,75.95
2018-09-27T06:11:08.445Z,76.04
2018-09-27T06:12:18.477Z,76.14
2018-09-27T06:13:28.475Z,76.23
2018-09-27T06:14:38.418Z,76.33
2018-09-27T06:15:48.375Z,76.04
2018-09-27T06:16:58.326Z,76.04
2018-09-27T06:18:08.276Z,76.33
2018-09-27T06:19:18.089Z,75.85
2018-09-27T06:20:28.011Z,76.14
2018-09-27T06:21:37.554Z,75.85
2018-09-27T06:22:47.860Z,75.76
2018-09-27T06:23:57.817Z,75.66
2018-09-27T06:25:07.777Z,76.14
2018-09-27T06:26:17.740Z,76.33
2018-09-27T06:27:27.786Z,75.37
2018-09-27T06:28:37.620Z,75.47
2018-09-27T06:29:47.581Z,75.79
2018-09-27T06:30:57.532Z,75.12
2018-09-27T06:32:07.233Z,75.22
2018-09-27T06:33:16.964Z,75.02
2018-09-27T06:34:26.676Z,75.41
2018-09-27T06:35:36.642Z,75.22
2018-09-27T06:36:46.093Z,75.51
2018-09-27T06:37:55.806Z,75.31
2018-09-27T06:39:05.813Z,75.22
2018-09-27T06:40:15.536Z,75.22
2018-09-27T06:41:25.350Z,75.41
2018-09-27T06:42:35.483Z,75.31
2018-09-27T06:43:45.492Z,75.41
2018-09-27T06:44:55.462Z,75.31
2018-09-27T06:46:05.462Z,75.41
2018-09-27T06:47:15.426Z,75.51
2018-09-27T06:48:25.535Z,75.51
2018-09-27T06:49:35.896Z,75.31
2018-09-27T06:50:46.047Z,75.31
2018-09-27T06:51:56.010Z,75.51
2018-09-27T06:53:06.060Z,75.22
2018-09-27T06:54:15.775Z,75.12
2018-09-27T06:55:26.259Z,75.22
2018-09-27T06:56:36.937Z,75.12
2018-09-27T06:57:47.414Z,75.02
2018-09-27T06:58:57.176Z,75.51
2018-09-27T07:00:06.639Z,74.74
2018-09-27T07:01:16.362Z,74.84
2018-09-27T07:02:26.075Z,75.22
2018-09-27T07:03:36.154Z,75.22
2018-09-27T07:04:45.894Z,75.22
2018-09-27T07:05:55.139Z,75.31
2018-09-27T07:07:05.380Z,74.84
2018-09-27T07:08:15.188Z,75.02
2018-09-27T07:09:24.955Z,74.93
2018-09-27T07:10:34.660Z,74.68
2018-09-27T07:11:44.695Z,74.97
2018-09-27T07:12:55.185Z,74.93
2018-09-27T07:14:05.250Z,74.77
2018-09-27T07:15:14.992Z,74.77
2018-09-27T07:16:24.998Z,74.4
2018-09-27T07:17:34.698Z,74.87
2018-09-27T07:18:44.784Z,74.4
2018-09-27T07:19:55.148Z,74.49
2018-09-27T07:21:04.593Z,74.4
2018-09-27T07:22:14.296Z,74.58
2018-09-27T07:23:23.989Z,74.49
2018-09-27T07:24:33.944Z,74.4
2018-09-27T07:25:43.896Z,74.2
2018-09-27T07:26:53.923Z,74.58
2018-09-27T07:28:03.802Z,74.58
2018-09-27T07:29:13.513Z,74.2
2018-09-27T07:30:23.226Z,74.15
2018-09-27T07:31:32.943Z,74.15
2018-09-27T07:32:43.096Z,74.15
2018-09-27T07:33:53.097Z,74.33
2018-09-27T07:35:02.808Z,74.15
2018-09-27T07:36:12.766Z,74.05
2018-09-27T07:37:22.777Z,74.15
2018-09-27T07:38:32.910Z,74.24
2018-09-27T07:39:42.391Z,73.66
2018-09-27T07:40:52.367Z,74.05
2018-09-27T07:42:02.389Z,74.33
2018-09-27T07:43:12.397Z,74.33
2018-09-27T07:44:22.369Z,74.05
2018-09-27T07:45:32.336Z,73.86
2018-09-27T07:46:42.047Z,73.76
2018-09-27T07:47:52.002Z,73.86
2018-09-27T07:49:01.968Z,73.66
2018-09-27T07:50:11.980Z,74.08
2018-09-27T07:51:21.946Z,73.61
2018-09-27T07:52:31.912Z,73.7
2018-09-27T07:53:41.868Z,73.99
2018-09-27T07:54:52.083Z,73.51
2018-09-27T07:56:02.515Z,73.7
2018-09-27T07:57:12.488Z,74.18
2018-09-27T07:58:22.468Z,73.86
2018-09-27T07:59:32.460Z,73.99
2018-09-27T08:00:42.510Z,73.7
2018-09-27T08:01:52.588Z,73.9
2018-09-27T08:03:02.117Z,73.9
2018-09-27T08:04:12.194Z,74.08
2018-09-27T08:05:22.542Z,74.08
2018-09-27T08:06:32.508Z,73.9
2018-09-27T08:07:42.467Z,73.74
2018-09-27T08:08:52.172Z,73.65
2018-09-27T08:10:02.143Z,73.93
2018-09-27T08:11:12.378Z,74.02
2018-09-27T08:12:22.540Z,73.74
2018-09-27T08:13:32.253Z,74.12
2018-09-27T08:14:42.415Z,73.65
2018-09-27T08:15:52.288Z,74.02
2018-09-27T08:17:02.125Z,73.83
2018-09-27T08:18:12.289Z,73.74
2018-09-27T08:19:22.063Z,73.74
2018-09-27T08:20:32.069Z,73.87
2018-09-27T08:21:42.806Z,73.83
2018-09-27T08:22:52.779Z,74.16
2018-09-27T08:24:02.877Z,73.77
2018-09-27T08:25:13.121Z,73.87
2018-09-27T08:26:22.583Z,73.97
2018-09-27T08:27:32.504Z,74.06
2018-09-27T08:28:42.226Z,73.68
2018-09-27T08:29:52.204Z,73.3
2018-09-27T08:31:02.300Z,72.47
2018-09-27T08:32:12.542Z,71.89
2018-09-27T08:33:22.509Z,72.37
2018-09-27T08:34:32.526Z,72.37
2018-09-27T08:35:42.524Z,72.37
2018-09-27T08:36:52.493Z,71.8
2018-09-27T08:38:02.472Z,71.7
2018-09-27T08:39:12.247Z,71.73
2018-09-27T08:40:22.248Z,72.08
2018-09-27T08:41:31.974Z,72.47
2018-09-27T08:42:41.924Z,72.37
2018-09-27T08:43:51.607Z,72.66
2018-09-27T08:45:02.241Z,72.37
2018-09-27T08:46:13.144Z,72.37
2018-09-27T08:47:23.148Z,71.83
2018-09-27T08:48:32.854Z,71.19
2018-09-27T08:49:42.300Z,70.52
2018-09-27T08:50:52.019Z,69.79
2018-09-27T08:52:01.741Z,69.5
2018-09-27T08:53:11.222Z,69.89
2018-09-27T08:54:20.940Z,70.17
2018-09-27T08:55:30.337Z,70.17
2018-09-27T08:56:40.364Z,70.14
2018-09-27T08:57:49.822Z,70.04
2018-09-27T08:58:59.798Z,70.43
2018-09-27T09:00:09.505Z,70.17
2018-09-27T09:01:18.719Z,70.37
2018-09-27T09:02:29.062Z,70.65
2018-09-27T09:03:39.298Z,70.46
2018-09-27T09:04:49.902Z,70.07
2018-09-27T09:05:59.637Z,68.83
2018-09-27T09:07:09.344Z,69.12
2018-09-27T09:08:19.333Z,69.02
2018-09-27T09:09:29.166Z,68.67
2018-09-27T09:10:39.458Z,68.76
2018-09-27T09:11:49.418Z,68.57
2018-09-27T09:12:59.185Z,68.09
2018-09-27T09:14:09.167Z,67.45
2018-09-27T09:15:19.368Z,66.78
2018-09-27T09:16:29.137Z,66.91
2018-09-27T09:17:38.848Z,66.91
2018-09-27T09:18:48.577Z,66.97
2018-09-27T09:19:58.592Z,67.16
2018-09-27T09:21:08.551Z,67.1
2018-09-27T09:22:18.266Z,65.85
2018-09-27T09:23:27.729Z,65.98
2018-09-27T09:24:37.448Z,64.92
2018-09-27T09:25:48.176Z,64.76
2018-09-27T09:26:57.873Z,64.56
2018-09-27T09:28:07.853Z,64.47
2018-09-27T09:29:17.944Z,64.18
2018-09-27T09:30:28.236Z,64.56
2018-09-27T09:31:38.201Z,64.18
2018-09-27T09:32:48.161Z,63.79
2018-09-27T09:33:58.129Z,64.47
2018-09-27T09:35:08.114Z,64.08
2018-09-27T09:36:18.079Z,63.44
2018-09-27T09:37:28.063Z,63.54
2018-09-27T09:38:38.021Z,63.15
2018-09-27T09:39:48.007Z,63.34
2018-09-27T09:40:57.974Z,63.24
2018-09-27T09:42:07.969Z,63.63
2018-09-27T09:43:17.443Z,64.28
2018-09-27T09:44:27.437Z,64.47
2018-09-27T09:45:37.407Z,64.86
2018-09-27T09:46:47.117Z,64.18
2018-09-27T09:47:56.819Z,64.66
2018-09-27T09:49:06.806Z,63.73
2018-09-27T09:50:16.769Z,64.21
2018-09-27T09:51:26.776Z,64.31
2018-09-27T09:52:36.736Z,64.4
2018-09-27T09:53:46.728Z,63.73
2018-09-27T09:54:56.167Z,64.21
2018-09-27T09:56:05.871Z,64.98
2018-09-27T09:57:15.839Z,65.33
2018-09-27T09:58:25.802Z,65.33
2018-09-27T09:59:35.496Z,64.89
2018-09-27T10:00:45.488Z,64.59
2018-09-27T10:01:55.467Z,64.31
2018-09-27T10:03:05.178Z,64.69
2018-09-27T10:04:14.891Z,64.5
2018-09-27T10:05:24.870Z,65.27
2018-09-27T10:06:34.854Z,64.5
2018-09-27T10:07:44.565Z,64.11
2018-09-27T10:08:54.338Z,63.57
2018-09-27T10:10:04.279Z,62.7
2018-09-27T10:11:14.050Z,63.57
2018-09-27T10:12:23.824Z,63.12
2018-09-27T10:13:33.570Z,62.25
2018-09-27T10:14:43.544Z,61.99
2018-09-27T10:15:53.511Z,60.83
2018-09-27T10:17:03.468Z,60.73
2018-09-27T10:18:13.448Z,60.35
2018-09-27T10:19:23.410Z,61.05
2018-09-27T10:20:33.111Z,61.15
2018-09-27T10:21:43.008Z,61.73
2018-09-27T10:22:53.510Z,59.8
2018-09-27T10:24:03.223Z,59.44
2018-09-27T10:25:13.211Z,60.6
2018-09-27T10:26:23.212Z,61.54
2018-09-27T10:27:32.979Z,62.47
2018-09-27T10:28:43.353Z,62.15
2018-09-27T10:29:53.061Z,62.08
2018-09-27T10:31:03.063Z,61.51
2018-09-27T10:32:13.011Z,61.54
2018-09-27T10:33:22.723Z,61.22
2018-09-27T10:34:32.182Z,61.31
2018-09-27T10:35:41.863Z,61.41
2018-09-27T10:36:51.336Z,61.22
2018-09-27T10:38:01.306Z,61.44
2018-09-27T10:39:11.010Z,59.99
2018-09-27T10:40:20.984Z,59.44
2018-09-27T10:41:30.963Z,59.08
2018-09-27T10:42:40.395Z,59.08
2018-09-27T10:43:50.104Z,59.56
2018-09-27T10:45:00.232Z,59.38
2018-09-27T10:46:09.808Z,58.44
2018-09-27T10:47:19.787Z,58.24
2018-09-27T10:48:29.501Z,58.31
2018-09-27T10:49:39.465Z,58.34
2018-09-27T10:50:49.188Z,57.28
2018-09-27T10:51:59.152Z,57.01
2018-09-27T10:53:08.859Z,57.66
2018-09-27T10:54:18.833Z,57.37
2018-09-27T10:55:28.542Z,57.2
2018-09-27T10:56:38.497Z,57.98
2018-09-27T10:57:48.469Z,58.24
2018-09-27T10:58:58.446Z,58.21
2018-09-27T11:00:08.419Z,58.34
2018-09-27T11:01:18.149Z,57.66
2018-09-27T11:02:28.120Z,58.44
2018-09-27T11:03:38.089Z,58.31
2018-09-27T11:04:48.051Z,58.34
2018-09-27T11:05:58.021Z,58.34
2018-09-27T11:07:07.995Z,57.3
2018-09-27T11:08:17.981Z,57.79
2018-09-27T11:09:27.700Z,58.07
2018-09-27T11:10:37.430Z,58.44
2018-09-27T11:11:47.463Z,58.53
2018-09-27T11:12:56.966Z,59.21
2018-09-27T11:14:06.687Z,59.21
2018-09-27T11:15:16.658Z,59.66
2018-09-27T11:16:26.531Z,59.66
2018-09-27T11:17:36.715Z,59.86
2018-09-27T11:18:46.698Z,59.56
2018-09-27T11:19:56.671Z,59.69
2018-09-27T11:21:06.396Z,60.24
2018-09-27T11:22:16.380Z,59.95
2018-09-27T11:23:26.128Z,58.98
2018-09-27T11:24:36.154Z,59.21
2018-09-27T11:25:46.318Z,58.72
2018-09-27T11:26:56.007Z,58.44
2018-09-27T11:28:05.742Z,59.21
2018-09-27T11:29:15.717Z,59.31
2018-09-27T11:30:25.694Z,59.5
2018-09-27T11:31:35.692Z,58.34
2018-09-27T11:32:45.656Z,57.98
2018-09-27T11:33:55.643Z,58.27
2018-09-27T11:35:05.623Z,58.39
2018-09-27T11:36:15.713Z,57.71
2018-09-27T11:37:25.699Z,56.2
2018-09-27T11:38:35.227Z,57.17
2018-09-27T11:39:45.301Z,57.33
2018-09-27T11:40:55.327Z,58.3
2018-09-27T11:42:04.580Z,58.37
2018-09-27T11:43:14.574Z,59.69
2018-09-27T11:44:24.536Z,60.17
2018-09-27T11:45:34.543Z,60.27
2018-09-27T11:46:44.530Z,59.79
2018-09-27T11:47:54.519Z,59.31
2018-09-27T11:49:04.567Z,59.23
2018-09-27T11:50:15.164Z,58.56
2018-09-27T11:51:25.304Z,58.39
2018-09-27T11:52:35.299Z,58.78
2018-09-27T11:53:45.273Z,58.85
2018-09-27T11:54:55.329Z,59.79
2018-09-27T11:56:05.684Z,59.59
2018-09-27T11:57:15.944Z,58.95
2018-09-27T11:58:25.902Z,58.92
2018-09-27T11:59:35.879Z,58.53
2018-09-27T12:00:45.996Z,59.14
2018-09-27T12:01:55.965Z,59.23
2018-09-27T12:03:05.943Z,57.88
2018-09-27T12:04:15.649Z,57.04
2018-09-27T12:05:25.623Z,57.55
2018-09-27T12:06:36.000Z,58.27
2018-09-27T12:07:46.342Z,58.14
2018-09-27T12:08:55.799Z,58.27
2018-09-27T12:10:05.244Z,58.37
2018-09-27T12:11:15.245Z,59.21
2018-09-27T12:12:25.205Z,60.27
2018-09-27T12:13:35.237Z,60.05
2018-09-27T12:14:45.165Z,59.89
2018-09-27T12:15:54.988Z,59.31
2018-09-27T12:17:04.441Z,59.31
2018-09-27T12:18:14.163Z,59.11
2018-09-27T12:19:24.267Z,58.56
2018-09-27T12:20:33.755Z,58.37
2018-09-27T12:21:43.474Z,58.95
2018-09-27T12:22:53.568Z,59.53
2018-09-27T12:24:03.645Z,59.01
2018-09-27T12:25:13.629Z,59.5
2018-09-27T12:26:23.617Z,59.5
2018-09-27T12:27:33.795Z,59.21
2018-09-27T12:28:43.941Z,58.27
2018-09-27T12:29:53.892Z,58.2
2018-09-27T12:31:04.011Z,57.81
2018-09-27T12:32:14.410Z,57.81
2018-09-27T12:33:24.388Z,57.81
2018-09-27T12:34:34.356Z,58.88
2018-09-27T12:35:44.068Z,59.05
2018-09-27T12:36:53.536Z,59.31
2018-09-27T12:38:03.516Z,58.95
2018-09-27T12:39:13.264Z,58.47
2018-09-27T12:40:23.242Z,57.33
2018-09-27T12:41:33.583Z,57.81
2018-09-27T12:42:44.227Z,56.77
2018-09-27T12:43:54.466Z,56
2018-09-27T12:45:04.355Z,57.26
2018-09-27T12:46:14.998Z,55.81
2018-09-27T12:47:25.381Z,56.49
2018-09-27T12:48:35.481Z,56.59
2018-09-27T12:49:46.186Z,57.26
2018-09-27T12:50:56.279Z,57.62
2018-09-27T12:52:06.769Z,56.75
2018-09-27T12:53:18.323Z,56
2018-09-27T12:54:28.068Z,55.93
2018-09-27T12:55:37.511Z,55.42
2018-09-27T12:56:47.493Z,55.16
2018-09-27T12:57:57.474Z,54.67
2018-09-27T12:59:07.424Z,55.62
2018-09-27T13:00:17.396Z,55.62
2018-09-27T13:01:27.455Z,56.75
2018-09-27T13:02:37.644Z,56.65
2018-09-27T13:03:47.980Z,55.78
2018-09-27T13:04:57.793Z,55.98
2018-09-27T13:06:07.806Z,55.68
2018-09-27T13:07:17.824Z,56.65
2018-09-27T13:08:27.864Z,57.5
2018-09-27T13:09:38.031Z,57.46
2018-09-27T13:10:48.721Z,57.95
2018-09-27T13:11:58.897Z,58.44
2018-09-27T13:13:09.209Z,57.76
2018-09-27T13:14:19.842Z,56.82
2018-09-27T13:15:29.904Z,57.2
2018-09-27T13:16:39.874Z,57.69
2018-09-27T13:17:49.223Z,57.79
2018-09-27T13:19:00.641Z,58.24
2018-09-27T13:20:10.022Z,58.04
2018-09-27T13:21:19.882Z,58.04
2018-09-27T13:22:29.956Z,57.2
2018-09-27T13:23:39.916Z,57.3
2018-09-27T13:24:49.943Z,56.75
2018-09-27T13:26:00.186Z,56.72
2018-09-27T13:27:10.096Z,57.11
2018-09-27T13:28:19.892Z,57.2
2018-09-27T13:29:29.660Z,57.56
2018-09-27T13:30:39.368Z,57.46
2018-09-27T13:31:48.859Z,57.11
2018-09-27T13:32:59.054Z,56.14
2018-09-27T13:34:09.504Z,56.46
2018-09-27T13:35:19.487Z,55.88
2018-09-27T13:36:29.463Z,55.52
2018-09-27T13:37:39.176Z,55.42
2018-09-27T13:38:48.915Z,55.42
2018-09-27T13:39:58.567Z,54.84
2018-09-27T13:41:09.012Z,54.86
2018-09-27T13:42:18.735Z,53.89
2018-09-27T13:43:28.709Z,53.89
2018-09-27T13:44:38.403Z,53.31
2018-09-27T13:45:48.132Z,53.15
2018-09-27T13:46:58.107Z,53.05
2018-09-27T13:48:08.070Z,53.83
2018-09-27T13:49:17.778Z,53.31
2018-09-27T13:50:27.748Z,54.11
2018-09-27T13:51:37.736Z,54.28
2018-09-27T13:52:47.723Z,53.58
2018-09-27T13:53:57.676Z,53.19
2018-09-27T13:55:07.455Z,53.77
2018-09-27T13:56:17.553Z,54.06
2018-09-27T13:57:27.443Z,53.8
2018-09-27T13:58:37.461Z,54.48
2018-09-27T13:59:47.430Z,54.35
2018-09-27T14:00:57.513Z,54.94
2018-09-27T14:02:07.760Z,55.9
2018-09-27T14:03:17.466Z,55.78
2018-09-27T14:04:27.440Z,56.36
2018-09-27T14:05:37.419Z,55.81
2018-09-27T14:06:47.502Z,56.1
2018-09-27T14:07:57.419Z,55.81
2018-09-27T14:09:07.134Z,56
2018-09-27T14:50:01.610Z,54.96
2018-09-27T14:51:11.497Z,55.81
2018-09-27T14:52:21.498Z,55.81
2018-09-27T14:53:31.072Z,55.9
2018-09-27T14:54:40.981Z,55.22
2018-09-27T14:55:51.160Z,55.32
2018-09-27T14:57:01.140Z,55.71
2018-09-27T14:58:11.118Z,55.52
2018-09-27T14:59:21.106Z,55.9
2018-09-27T15:00:31.283Z,55.71
2018-09-27T15:01:41.445Z,56.1
2018-09-27T15:02:51.178Z,56.87
2018-09-27T15:04:01.162Z,57.11
2018-09-27T15:05:10.881Z,57.79
2018-09-27T15:06:20.621Z,58.37
2018-09-27T15:07:30.347Z,58.44
2018-09-27T15:08:40.062Z,58.63
2018-09-27T15:09:50.079Z,58.34
2018-09-27T15:11:00.342Z,59.11
2018-09-27T15:12:10.407Z,58.72
2018-09-27T15:13:20.371Z,58.27
2018-09-27T15:14:30.411Z,58.34
2018-09-27T15:15:40.413Z,58.56
2018-09-27T15:16:50.374Z,58.53
2018-09-27T15:18:00.642Z,58.53
2018-09-27T15:19:10.707Z,58.37
2018-09-27T15:20:20.689Z,58.72
2018-09-27T15:21:30.134Z,58.34
2018-09-27T15:22:40.216Z,57.79
2018-09-27T15:23:50.560Z,57.79
2018-09-27T15:25:00.540Z,58.14
2018-09-27T15:26:10.537Z,58.27
2018-09-27T15:27:20.232Z,58.53
2018-09-27T15:28:30.187Z,59.11
2018-09-27T15:29:39.906Z,59.11
2018-09-27T15:30:49.454Z,59.18
2018-09-27T15:31:59.182Z,59.66
2018-09-27T15:33:08.914Z,60.14
2018-09-27T15:34:18.903Z,59.95
2018-09-27T15:35:28.889Z,59.95
2018-09-27T15:36:39.078Z,60.44
2018-09-27T15:37:49.244Z,60.79
2018-09-27T15:38:59.215Z,60.79
2018-09-27T15:40:09.318Z,60.99
2018-09-27T15:41:19.291Z,60.69
2018-09-27T15:42:29.254Z,60.69
2018-09-27T15:43:39.226Z,60.69